ENGM

Oslo Gardermoen Airport

Oslo, Norway
METAR ENGM 241950Z 17005KT 8000 -SN FEW018 BKN030 M06/M08 Q1036 TEMPO 2000 -SN BR BKN008
Observed Flight Rules
Feb-24 @ 19:50 UTC (22 minutes ago) Marginal Visual Flight Rules
Wind Visibility Clouds Conditions
170° at 5 knots 7,998 meters
  • Few at 1,800' AGL
  • Broken at 3,000' AGL
  • Light Snow
Temperatures Readings
Current -6°C / 21°F
Dewpoint -8°C / 18°F
Humidity 86%
Altimeter 30.59" Hg
Pressure 1036 hPa
Elevation 204
METAR ENGM 241950Z 17005KT 8000 -SN FEW018 BKN030 M06/M08 Q1036 TEMPO 2000 -SN BR BKN008
Observed Flight Rules
Feb-24 @ 19:50 UTC
(22 minutes ago)
MVFR
Wind Visibility
170° at 5 knots 7,998 meters
Clouds
  • Few at 1,800' AGL
  • Broken at 3,000' AGL
Conditions
  • Light Snow
Temperature Dewpoint
-6°C / 21°F -8°C / 18°F
Humidity Altimeter Pressure
86% 30.59" Hg 1036 hPa